Time;durP1;ratioP1;P1;durP2;ratioP2;P2;SDS_P1;SDS_P2;PMS_P1;PMS_P2;Temp;Humidity;BMP_temperature;BMP_pressure;BME280_temperature;BME280_humidity;BME280_pressure;Samples;Min_cycle;Max_cycle;Signal;HPM_P1;HPM_P2
2022/01/05 04:32:39;;;;;;;1.30;1.30;;;;;;;9.42;60.09;97319.59;7242513;23;20251;-84
2022/01/05 04:36:00;;;;;;;1.13;1.13;;;;;;;9.86;58.61;97321.66;6786647;29;20230;-84
2022/01/05 04:39:22;;;;;;;1.10;1.10;;;;;;;9.94;59.42;97324.00;6787592;29;20607;-83
2022/01/05 04:42:44;;;;;;;1.30;1.27;;;;;;;9.01;61.94;97339.53;6785725;29;20239;-84
2022/01/05 04:46:05;;;;;;;1.30;1.30;;;;;;;9.37;61.83;97350.91;6762680;29;20209;-84
2022/01/05 04:49:28;;;;;;;1.30;1.20;;;;;;;10.15;59.92;97365.66;6766250;29;20311;-84
2022/01/05 05:03:20;;;;;;;1.40;1.40;;;;;;;10.06;59.49;97365.22;7272006;23;20246;-75
2022/01/05 05:06:43;;;;;;;1.30;1.30;;;;;;;9.44;61.37;97352.44;6816033;29;20291;-75
2022/01/05 05:10:05;;;;;;;1.30;1.30;;;;;;;9.30;62.57;97377.94;6828668;29;20219;-75
2022/01/05 05:13:27;;;;;;;1.40;1.40;;;;;;;9.12;62.13;97328.78;6827279;28;21144;-75
2022/01/05 05:16:49;;;;;;;1.37;1.37;;;;;;;9.57;62.26;97389.06;6839721;28;20702;-75
2022/01/05 05:20:12;;;;;;;1.40;1.40;;;;;;;8.72;62.81;97282.06;6840765;28;20214;-75
2022/01/05 05:23:35;;;;;;;1.73;1.70;;;;;;;9.80;62.23;97379.09;6834360;29;20214;-76
2022/01/05 05:26:57;;;;;;;1.33;1.33;;;;;;;9.50;62.49;97399.94;6845067;29;20213;-76
2022/01/05 05:30:19;;;;;;;1.80;1.70;;;;;;;9.52;62.88;97392.44;6828506;29;20210;-75
2022/01/05 05:33:41;;;;;;;1.40;1.40;;;;;;;9.51;62.87;97457.25;6834158;29;20219;-75
2022/01/05 05:37:03;;;;;;;2.10;2.00;;;;;;;7.76;64.02;97441.44;6841012;29;20236;-79
2022/01/05 05:40:26;;;;;;;1.70;1.70;;;;;;;8.03;63.09;97495.69;6846879;28;20289;-81
2022/01/05 05:43:49;;;;;;;1.73;1.70;;;;;;;7.97;61.37;97462.50;6830027;29;20217;-76
2022/01/05 05:47:10;;;;;;;2.10;2.00;;;;;;;8.05;62.15;97531.16;6828351;29;20538;-75
2022/01/05 05:50:32;;;;;;;2.37;2.27;;;;;;;7.02;62.63;97434.41;6839388;29;20212;-75
2022/01/05 05:53:54;;;;;;;2.30;2.20;;;;;;;7.22;62.61;97529.72;6845131;28;20220;-75
2022/01/05 05:57:17;;;;;;;2.87;2.67;;;;;;;7.85;61.79;97573.44;6830988;29;20236;-76
2022/01/05 06:00:39;;;;;;;2.60;2.50;;;;;;;7.61;62.90;97601.06;6833061;29;20225;-76
2022/01/05 06:04:01;;;;;;;2.63;2.53;;;;;;;6.88;62.79;97511.34;6834805;29;20236;-76
2022/01/05 06:07:23;;;;;;;2.83;2.63;;;;;;;6.74;63.32;97523.16;6818688;29;20206;-76
2022/01/05 06:10:44;;;;;;;3.60;3.30;;;;;;;7.65;62.94;97618.34;6820454;29;20221;-76
2022/01/05 06:14:07;;;;;;;3.40;3.10;;;;;;;7.27;62.48;97562.06;6839801;29;20217;-77
2022/01/05 06:17:29;;;;;;;3.63;3.23;;;;;;;7.31;62.41;97584.69;6828537;29;20232;-77
2022/01/05 06:20:51;;;;;;;6.37;3.60;;;;;;;6.75;63.53;97575.69;6838191;28;20231;-77
2022/01/05 06:24:12;;;;;;;4.20;3.80;;;;;;;7.44;63.78;97645.50;6835674;29;20211;-77
2022/01/05 06:27:34;;;;;;;4.13;3.73;;;;;;;7.57;63.04;97638.22;6837804;28;20219;-77
2022/01/05 06:30:57;;;;;;;4.17;3.77;;;;;;;7.15;63.20;97565.63;6828398;28;20211;-77
2022/01/05 06:34:19;;;;;;;4.53;3.83;;;;;;;7.19;62.75;97574.88;6831897;29;20216;-76
2022/01/05 06:37:41;;;;;;;4.33;3.70;;;;;;;7.41;62.44;97595.78;6834519;28;20218;-77
2022/01/05 06:41:02;;;;;;;4.10;3.80;;;;;;;8.04;61.51;97635.03;6831332;28;20202;-81
2022/01/05 06:44:24;;;;;;;4.17;3.47;;;;;;;7.73;61.70;97669.06;6842512;28;20212;-79
2022/01/05 06:47:47;;;;;;;4.23;3.37;;;;;;;7.56;61.72;97619.66;6829455;29;20209;-76
2022/01/05 06:51:09;;;;;;;4.17;3.77;;;;;;;7.91;61.56;97608.25;6829430;29;20568;-75
2022/01/05 06:54:30;;;;;;;4.47;4.07;;;;;;;8.23;60.94;97652.88;6837155;28;20578;-74
2022/01/05 06:57:52;;;;;;;4.80;4.40;;;;;;;8.28;61.56;97669.16;6819456;29;20213;-74
2022/01/05 07:01:14;;;;;;;6.57;4.37;;;;;;;8.74;60.72;97695.63;6821303;29;20234;-72
2022/01/05 07:04:40;;;;;;;4.90;4.50;;;;;;;8.15;61.21;97658.50;6825468;29;20206;-73
2022/01/05 07:08:04;;;;;;;5.50;4.43;;;;;;;8.20;61.46;97722.28;6825331;29;20236;-78
2022/01/05 07:11:26;;;;;;;4.50;4.13;;;;;;;8.10;61.66;97703.94;6840614;29;20220;-78
2022/01/05 07:14:47;;;;;;;8.93;3.80;;;;;;;7.88;61.48;97697.25;6840635;29;20230;-78
2022/01/05 07:18:12;;;;;;;5.33;4.17;;;;;;;7.99;61.66;97739.53;6839093;29;20213;-76
2022/01/05 07:21:35;;;;;;;3.30;3.00;;;;;;;7.94;61.26;97752.75;6827403;29;20216;-75
2022/01/05 07:24:57;;;;;;;3.60;3.27;;;;;;;8.15;61.18;97759.66;6830586;29;20206;-75
2022/01/05 07:28:18;;;;;;;4.13;3.20;;;;;;;7.81;61.46;97768.91;6845698;28;20256;-74
2022/01/05 07:31:40;;;;;;;3.83;3.50;;;;;;;7.94;61.04;97766.16;6838100;28;20616;-75
2022/01/05 07:35:02;;;;;;;4.10;3.53;;;;;;;7.99;61.20;97790.50;6831496;29;20233;-74
2022/01/05 07:38:27;;;;;;;9.40;3.73;;;;;;;7.05;63.12;97767.06;6830650;29;20219;-74
2022/01/05 07:41:49;;;;;;;5.07;3.80;;;;;;;7.18;63.39;97785.78;6827920;29;20677;-74
2022/01/05 07:45:11;;;;;;;5.93;4.73;;;;;;;7.05;63.05;97787.66;6821061;29;20229;-74
2022/01/05 07:48:33;;;;;;;4.27;3.83;;;;;;;7.01;64.08;97824.75;6829680;29;20217;-74
2022/01/05 07:51:55;;;;;;;6.37;3.60;;;;;;;7.37;63.87;97814.41;6839470;29;20215;-74
2022/01/05 07:55:21;;;;;;;3.93;3.40;;;;;;;6.94;63.04;97700.69;6836654;29;20645;-77
2022/01/05 07:58:43;;;;;;;4.07;3.03;;;;;;;7.72;62.89;97826.50;6824860;29;20210;-74
2022/01/05 08:02:05;;;;;;;3.57;2.93;;;;;;;7.88;62.21;97827.91;6825832;29;20246;-73
2022/01/05 08:05:27;;;;;;;3.40;3.10;;;;;;;7.85;62.51;97836.38;6823956;29;20223;-75
2022/01/05 08:08:50;;;;;;;5.17;3.20;;;;;;;7.28;62.42;97814.84;6831482;29;20214;-74
2022/01/05 08:12:13;;;;;;;3.77;2.93;;;;;;;7.69;61.35;97843.03;6821810;29;20206;-74
2022/01/05 08:15:35;;;;;;;4.83;2.83;;;;;;;7.68;59.80;97864.72;6835369;28;20603;-76
2022/01/05 08:18:59;;;;;;;3.67;3.00;;;;;;;7.62;59.20;97847.59;6837936;29;20290;-74
2022/01/05 08:22:20;;;;;;;5.77;3.00;;;;;;;7.40;58.15;97862.28;6831588;29;20206;-74
2022/01/05 08:25:42;;;;;;;5.00;3.00;;;;;;;7.35;60.11;97893.41;6833556;29;20195;-75
2022/01/05 08:29:05;;;;;;;3.10;2.90;;;;;;;7.34;59.88;97883.72;6829569;28;20220;-77
2022/01/05 08:32:27;;;;;;;3.67;3.33;;;;;;;7.35;59.32;97874.66;6829532;29;20212;-75
2022/01/05 08:35:49;;;;;;;3.93;3.20;;;;;;;7.48;58.44;97893.44;6834853;28;20231;-75
2022/01/05 08:39:11;;;;;;;6.77;3.83;;;;;;;7.45;58.87;97926.00;6828199;29;20219;-75
2022/01/05 08:42:33;;;;;;;5.13;3.40;;;;;;;7.40;58.62;97910.53;6828545;29;20210;-76
2022/01/05 08:45:56;;;;;;;4.77;3.70;;;;;;;7.09;58.69;97882.69;6821513;29;20569;-75
2022/01/05 08:49:18;;;;;;;7.93;3.80;;;;;;;6.70;59.19;97842.47;6828435;29;20689;-77
2022/01/05 08:52:39;;;;;;;3.90;3.53;;;;;;;7.03;59.29;97907.63;6828403;29;20292;-75
2022/01/05 08:56:01;;;;;;;4.23;3.30;;;;;;;7.59;57.98;97927.63;6833713;29;20233;-75
2022/01/05 08:59:23;;;;;;;8.93;4.27;;;;;;;7.19;57.26;97851.75;6832807;29;20208;-74
2022/01/05 09:02:46;;;;;;;6.20;3.60;;;;;;;7.41;56.89;97892.59;6821619;29;20235;-76
2022/01/05 09:06:08;;;;;;;10.20;4.13;;;;;;;6.52;57.46;97839.56;6822329;29;20213;-76
2022/01/05 09:09:30;;;;;;;9.53;3.50;;;;;;;8.08;56.62;97950.28;6822821;29;20233;-74
2022/01/05 09:12:53;;;;;;;8.00;4.20;;;;;;;7.81;55.84;97963.94;6804625;29;20212;-74
2022/01/05 09:16:17;;;;;;;7.00;3.27;;;;;;;7.48;54.46;97965.84;6819726;29;20232;-74
2022/01/05 09:19:40;;;;;;;6.30;4.20;;;;;;;7.03;55.18;97884.34;6797625;29;20213;-77
2022/01/05 09:23:03;;;;;;;7.63;3.23;;;;;;;8.06;53.01;97991.78;6818105;28;20211;-76
2022/01/05 09:26:25;;;;;;;3.63;3.27;;;;;;;7.58;53.29;98001.94;6826204;28;20254;-76
2022/01/05 09:29:47;;;;;;;10.03;4.40;;;;;;;7.18;53.23;97884.16;6834035;28;20208;-77
2022/01/05 09:33:10;;;;;;;5.20;3.20;;;;;;;7.40;52.44;98007.06;6819624;29;20237;-77
2022/01/05 09:36:36;;;;;;;5.83;4.20;;;;;;;7.16;51.61;97921.03;6819107;28;20240;-76
2022/01/05 09:43:54;;;;;;;5.63;3.43;;;;;;;7.44;52.46;98039.66;6811840;29;20293;-78
2022/01/05 09:47:26;;;;;;;16.23;13.70;;;;;;;7.43;51.62;97998.59;6826041;29;20209;-78
2022/01/05 09:50:53;;;;;;;6.00;4.40;;;;;;;7.09;50.79;97920.22;6832559;29;20209;-76
2022/01/05 09:54:16;;;;;;;3.90;3.13;;;;;;;7.57;50.71;98064.66;6818131;29;20207;-78
2022/01/05 09:57:39;;;;;;;6.87;4.33;;;;;;;6.60;51.13;97982.13;6824887;29;20818;-77
2022/01/05 10:01:00;;;;;;;6.07;3.30;;;;;;;6.84;51.11;97968.19;6831820;29;20220;-77
2022/01/05 10:04:23;;;;;;;5.20;3.40;;;;;;;7.24;50.19;97994.06;6835699;29;20676;-77
2022/01/05 10:07:45;;;;;;;5.70;3.23;;;;;;;7.04;50.32;98062.03;6811486;29;20238;-77
2022/01/05 10:11:10;;;;;;;7.63;3.73;;;;;;;7.05;50.48;97975.25;6828795;29;20227;-77
2022/01/05 10:14:32;;;;;;;8.10;3.67;;;;;;;7.14;50.66;98003.53;6839721;29;20211;-75
2022/01/05 10:18:09;;;;;;;10.27;3.97;;;;;;;7.23;50.91;98027.25;6831626;29;20249;-74
2022/01/05 10:21:35;;;;;;;4.20;3.03;;;;;;;6.87;50.24;98016.03;6826569;29;20694;-74
2022/01/05 10:24:58;;;;;;;6.87;3.30;;;;;;;7.07;49.52;98102.66;6826948;29;20294;-74
2022/01/05 10:28:27;;;;;;;6.27;3.33;;;;;;;7.51;49.96;98070.00;6835421;29;20221;-74
2022/01/05 10:31:53;;;;;;;5.47;4.03;;;;;;;6.52;48.50;97994.84;6835986;29;20234;-80
2022/01/05 10:35:17;;;;;;;7.50;3.07;;;;;;;7.07;47.98;98005.38;6826397;29;20218;-79
2022/01/05 10:38:41;;;;;;;8.57;3.17;;;;;;;7.67;48.87;98066.94;6835418;29;20695;-79
2022/01/05 10:42:05;;;;;;;6.77;2.93;;;;;;;8.00;46.90;98099.97;6837925;29;20223;-88
2022/01/05 10:45:41;;;;;;;7.50;3.17;;;;;;;7.78;47.02;98064.47;6811203;29;20221;-79
2022/01/05 10:49:04;;;;;;;3.00;2.70;;;;;;;8.66;45.45;98117.75;6828052;29;20272;-79
2022/01/05 10:52:27;;;;;;;8.83;4.53;;;;;;;7.97;46.52;97964.34;6839191;28;20213;-79
2022/01/05 10:55:49;;;;;;;8.23;3.40;;;;;;;8.55;44.59;98035.09;6815797;29;20352;-79
2022/01/05 10:59:11;;;;;;;6.73;3.33;;;;;;;8.40;45.31;98107.03;6825539;29;20214;-75
2022/01/05 11:02:35;;;;;;;6.50;3.07;;;;;;;7.57;44.45;98045.88;6831811;29;20229;-77
2022/01/05 11:06:09;;;;;;;7.07;3.17;;;;;;;7.65;46.19;98080.56;6829655;28;20213;-75
2022/01/05 11:09:31;;;;;;;5.93;2.97;;;;;;;8.07;45.42;98066.75;6826426;29;20231;-76
2022/01/05 11:12:54;;;;;;;8.53;3.10;;;;;;;7.66;45.93;97984.81;6831230;29;20218;-78
2022/01/05 11:16:26;;;;;;;8.43;2.90;;;;;;;8.64;45.22;98119.81;6831857;29;20230;-74
2022/01/05 11:19:49;;;;;;;5.20;2.70;;;;;;;7.91;43.36;98120.81;6834623;28;20199;-79
2022/01/05 11:23:12;;;;;;;7.20;3.00;;;;;;;7.71;43.80;98106.56;6825003;29;20604;-74
2022/01/05 11:26:35;;;;;;;7.87;2.67;;;;;;;7.93;44.50;98123.31;6834879;29;20285;-73
2022/01/05 11:29:58;;;;;;;10.40;3.43;;;;;;;7.78;44.77;98077.06;6831616;29;20204;-74
2022/01/05 11:33:21;;;;;;;7.10;2.90;;;;;;;8.04;44.00;98107.44;6833437;28;20576;-74
2022/01/05 11:36:44;;;;;;;6.47;3.13;;;;;;;7.25;45.05;98092.19;6825286;29;20225;-74
2022/01/05 11:40:07;;;;;;;10.43;3.30;;;;;;;6.81;44.82;97903.47;6830590;29;20257;-74
2022/01/05 11:43:32;;;;;;;6.47;3.50;;;;;;;8.27;44.25;98126.69;6830638;29;20727;-74
2022/01/05 11:46:54;;;;;;;15.97;4.20;;;;;;;8.15;43.46;98112.19;6842767;29;20227;-74
2022/01/05 11:50:26;;;;;;;8.50;3.30;;;;;;;7.70;43.54;98034.31;6834733;29;20220;-74
2022/01/05 11:53:49;;;;;;;9.00;3.33;;;;;;;8.61;42.72;98131.78;6838071;29;20211;-74
2022/01/05 11:57:13;;;;;;;9.23;3.27;;;;;;;9.13;42.23;98136.25;6813671;29;20237;-74
2022/01/05 12:00:34;;;;;;;5.57;2.70;;;;;;;8.22;44.43;98126.47;6837245;28;20213;-74
2022/01/05 12:04:16;;;;;;;9.13;2.87;;;;;;;7.93;44.30;98150.13;6840406;29;20224;-74
2022/01/05 12:07:40;;;;;;;5.27;2.47;;;;;;;8.48;44.35;98139.88;6823296;29;20268;-76
2022/01/05 12:11:04;;;;;;;6.80;3.23;;;;;;;7.80;44.04;98054.38;6809495;29;20564;-76
2022/01/05 12:14:47;;;;;;;6.83;2.87;;;;;;;8.56;43.13;98136.16;6829771;29;20249;-75
2022/01/05 12:18:09;;;;;;;8.83;3.47;;;;;;;7.67;44.69;98145.53;6824289;29;20239;-75
2022/01/05 12:21:43;;;;;;;8.37;3.57;;;;;;;7.81;44.35;98152.63;6834529;29;20244;-75
2022/01/05 12:25:09;;;;;;;6.47;3.00;;;;;;;8.03;45.05;98154.09;6827118;29;20224;-75
2022/01/05 12:28:35;;;;;;;10.33;3.70;;;;;;;7.66;44.62;98055.38;6818252;29;20293;-75
2022/01/05 12:32:01;;;;;;;8.57;3.37;;;;;;;8.18;44.79;98118.97;6818702;29;20235;-75
2022/01/05 12:35:23;;;;;;;8.83;3.40;;;;;;;8.08;45.20;98142.75;6829595;28;20216;-75
2022/01/05 12:38:49;;;;;;;6.37;2.67;;;;;;;8.00;44.59;98073.97;6841097;29;20235;-76
2022/01/05 12:42:22;;;;;;;7.33;2.77;;;;;;;8.41;44.99;98076.44;6811605;29;20210;-76
2022/01/05 12:45:53;;;;;;;4.77;2.87;;;;;;;8.64;43.51;98143.97;6811989;29;20361;-76
2022/01/05 12:49:16;;;;;;;7.50;2.57;;;;;;;8.12;43.26;98149.34;6836556;29;20206;-75
2022/01/05 12:52:38;;;;;;;5.93;2.97;;;;;;;8.53;42.72;98196.50;6830471;28;20227;-76
2022/01/05 12:56:01;;;;;;;7.07;2.90;;;;;;;7.98;42.20;98005.44;6819295;28;20464;-75
2022/01/05 12:59:28;;;;;;;6.13;2.70;;;;;;;8.23;42.31;98095.06;6836793;29;20562;-75
2022/01/05 13:02:52;;;;;;;12.57;3.57;;;;;;;8.62;42.56;98179.16;6824718;29;20217;-75
2022/01/05 13:06:14;;;;;;;7.53;3.20;;;;;;;8.22;41.77;98114.88;6832215;29;20218;-75
2022/01/05 13:09:38;;;;;;;3.87;3.23;;;;;;;8.90;42.25;98166.25;6841407;29;20296;-75
2022/01/05 13:13:08;;;;;;;8.90;3.13;;;;;;;8.85;41.66;98135.69;6825085;28;20540;-76
2022/01/05 13:16:29;;;;;;;3.30;2.80;;;;;;;8.81;40.84;98083.38;6826367;29;20381;-75
2022/01/05 13:19:55;;;;;;;8.17;3.63;;;;;;;9.31;41.17;98103.06;6840539;28;20206;-76
2022/01/05 13:23:17;;;;;;;8.87;3.47;;;;;;;9.94;41.21;98179.31;6813979;29;20218;-75
2022/01/05 13:27:01;;;;;;;14.77;3.30;;;;;;;10.09;40.57;98172.63;6831116;29;20207;-76
2022/01/05 13:30:24;;;;;;;6.27;2.73;;;;;;;8.79;41.25;98088.16;6831367;29;20198;-75
2022/01/05 13:33:46;;;;;;;8.03;3.37;;;;;;;8.84;41.85;98153.66;6829767;29;20213;-76
2022/01/05 13:37:10;;;;;;;8.10;3.73;;;;;;;7.97;41.75;98135.28;6820901;29;20589;-82
2022/01/05 13:40:32;;;;;;;5.63;2.70;;;;;;;8.43;41.44;98126.22;6821073;29;20208;-79
2022/01/05 13:43:54;;;;;;;7.43;2.90;;;;;;;8.33;41.26;98127.69;6828781;29;20219;-76
2022/01/05 13:47:17;;;;;;;9.43;3.07;;;;;;;8.62;41.41;98192.56;6819580;29;20201;-75
2022/01/05 13:50:40;;;;;;;7.07;3.40;;;;;;;8.72;43.01;98209.09;6833682;28;20205;-76
2022/01/05 13:54:04;;;;;;;8.33;4.00;;;;;;;9.13;41.80;98202.41;6838013;29;20293;-76
2022/01/05 13:57:26;;;;;;;9.37;3.70;;;;;;;9.28;41.33;98202.19;6812934;29;20238;-76
2022/01/05 14:00:51;;;;;;;5.77;2.83;;;;;;;8.16;40.81;98041.34;6829859;29;20208;-76
2022/01/05 14:04:12;;;;;;;5.70;3.20;;;;;;;9.37;40.81;98201.72;6827991;28;20292;-78
2022/01/05 14:07:37;;;;;;;7.50;4.60;;;;;;;9.05;41.08;98215.25;6832483;29;20223;-75
2022/01/05 14:11:11;;;;;;;8.33;3.57;;;;;;;8.55;41.85;98172.13;6839685;29;20202;-76
2022/01/05 14:14:32;;;;;;;9.00;2.50;;;;;;;8.46;42.10;98222.53;6843662;29;20275;-76
2022/01/05 14:18:02;;;;;;;4.33;2.57;;;;;;;8.91;41.31;98224.38;6836377;29;20234;-76
2022/01/05 14:21:27;;;;;;;5.57;2.73;;;;;;;8.36;42.50;98230.16;6836807;29;20206;-76
2022/01/05 14:24:48;;;;;;;5.30;2.40;;;;;;;8.52;42.14;98229.78;6844486;29;20298;-76
2022/01/05 14:28:17;;;;;;;6.03;2.70;;;;;;;8.69;41.82;98227.50;6839923;29;20208;-77
2022/01/05 14:31:40;;;;;;;5.53;2.20;;;;;;;7.86;42.67;98230.66;6832683;29;20214;-76
2022/01/05 14:35:03;;;;;;;4.97;2.73;;;;;;;7.83;42.36;98137.13;6835999;29;20203;-76
2022/01/05 14:38:25;;;;;;;7.70;2.77;;;;;;;7.25;43.28;98123.56;6833881;29;20289;-76
2022/01/05 14:41:51;;;;;;;7.33;2.93;;;;;;;7.71;43.93;98256.00;6828872;29;20564;-76
2022/01/05 14:45:18;;;;;;;6.77;2.73;;;;;;;7.95;43.13;98237.47;6836766;29;20270;-76
2022/01/05 14:48:39;;;;;;;6.03;3.70;;;;;;;7.83;43.33;98247.16;6836247;29;20214;-76
2022/01/05 14:52:02;;;;;;;6.77;3.07;;;;;;;8.09;43.59;98260.66;6835124;28;20215;-75
2022/01/05 14:55:23;;;;;;;6.37;2.80;;;;;;;8.07;42.91;98272.63;6839904;28;20220;-76
2022/01/05 14:58:46;;;;;;;8.23;3.30;;;;;;;7.64;43.41;98222.91;6826272;29;20245;-76
2022/01/05 15:02:09;;;;;;;4.50;2.40;;;;;;;7.33;43.51;98294.97;6835438;28;20216;-76
2022/01/05 15:05:31;;;;;;;6.10;2.80;;;;;;;6.54;43.33;98174.91;6831149;29;20626;-76
2022/01/05 15:08:53;;;;;;;6.10;2.87;;;;;;;7.06;43.37;98236.84;6822710;29;20210;-76
2022/01/05 15:12:16;;;;;;;11.43;3.20;;;;;;;7.58;43.37;98282.75;6832906;28;20216;-76
2022/01/05 15:15:37;;;;;;;5.33;2.53;;;;;;;7.14;43.03;98194.63;6833118;29;20199;-76
2022/01/05 15:19:00;;;;;;;4.30;2.83;;;;;;;6.69;43.57;98183.66;6837400;29;20235;-76
2022/01/05 15:22:22;;;;;;;6.83;2.97;;;;;;;7.78;43.48;98321.25;6826836;28;20208;-75
2022/01/05 15:25:44;;;;;;;3.70;2.40;;;;;;;7.35;44.22;98266.94;6830060;29;20218;-76
2022/01/05 15:29:06;;;;;;;5.60;2.83;;;;;;;7.95;43.35;98301.91;6835455;28;20206;-75
2022/01/05 15:32:28;;;;;;;6.40;2.77;;;;;;;7.75;43.58;98301.00;6821950;29;20225;-75
2022/01/05 15:35:51;;;;;;;7.47;2.90;;;;;;;7.89;43.31;98288.47;6837312;29;20606;-75
2022/01/05 15:39:13;;;;;;;5.77;2.70;;;;;;;7.71;43.82;98294.38;6832009;29;20237;-75
2022/01/05 15:42:34;;;;;;;4.50;2.50;;;;;;;7.75;43.43;98305.53;6832087;28;20252;-75
2022/01/05 15:46:09;;;;;;;5.27;3.00;;;;;;;7.35;44.80;98288.41;6827279;29;20213;-94
2022/01/05 15:53:30;;;;;;;7.53;2.80;;;;;;;5.98;44.27;98084.91;6830516;29;20230;-95
2022/01/05 15:57:02;;;;;;;6.50;2.60;;;;;;;6.96;43.53;98199.69;6837777;29;20240;-91
2022/01/05 16:04:07;;;;;;;5.67;3.40;;;;;;;6.52;44.11;98132.25;6823115;29;20288;-94
2022/01/05 16:07:36;;;;;;;6.33;4.03;;;;;;;7.61;44.32;98298.44;6829648;28;20207;-93
2022/01/05 16:11:00;;;;;;;3.53;2.90;;;;;;;7.58;45.04;98337.22;6819479;29;20241;-80
2022/01/05 16:14:21;;;;;;;7.03;3.73;;;;;;;7.06;44.22;98221.63;6819908;29;20223;-84
2022/01/05 16:17:44;;;;;;;7.13;2.80;;;;;;;7.66;44.91;98334.38;6842739;29;20596;-79
2022/01/05 16:21:08;;;;;;;10.10;3.50;;;;;;;7.74;45.46;98344.13;6834598;29;20234;-77
2022/01/05 16:24:30;;;;;;;8.47;5.53;;;;;;;8.17;44.91;98345.56;6839576;29;20693;-85
2022/01/05 16:27:53;;;;;;;27.23;11.10;;;;;;;7.17;46.27;98242.50;6822573;28;20203;-75
2022/01/05 16:31:15;;;;;;;9.07;4.07;;;;;;;7.77;45.29;98336.50;6827002;29;20211;-75
2022/01/05 16:34:38;;;;;;;5.40;3.10;;;;;;;7.39;45.35;98329.91;6831906;29;20686;-75
2022/01/05 16:38:00;;;;;;;8.17;3.70;;;;;;;7.49;45.45;98319.63;6825408;29;20718;-74
2022/01/05 16:41:22;;;;;;;6.57;3.50;;;;;;;7.91;44.53;98335.53;6818472;29;20216;-75
2022/01/05 16:44:45;;;;;;;7.60;3.23;;;;;;;7.33;45.52;98319.13;6827947;29;20507;-74
2022/01/05 16:48:08;;;;;;;8.50;3.97;;;;;;;7.47;45.38;98334.25;6828791;29;20210;-75
2022/01/05 16:51:30;;;;;;;4.53;3.33;;;;;;;7.76;44.89;98337.53;6834583;29;20298;-75
2022/01/05 16:54:59;;;;;;;8.40;4.43;;;;;;;8.13;43.79;98334.38;6835388;29;20234;-74
2022/01/05 17:02:03;;;;;;;10.73;3.80;;;;;;;7.49;45.54;98341.06;6828003;29;20223;-79
2022/01/05 17:05:35;;;;;;;16.37;8.00;;;;;;;7.29;45.13;98310.63;6830498;29;20612;-77
2022/01/05 17:08:57;;;;;;;6.27;4.53;;;;;;;7.97;45.00;98368.81;6820252;29;20217;-83
2022/01/05 17:12:22;;;;;;;11.70;4.63;;;;;;;6.43;45.95;98170.88;6813232;29;20226;-86
2022/01/05 17:15:44;;;;;;;7.53;4.67;;;;;;;8.04;44.76;98351.72;6837622;29;20670;-86
2022/01/05 17:19:08;;;;;;;12.47;6.87;;;;;;;7.87;44.66;98336.97;6828380;29;20246;-83
2022/01/05 17:22:30;;;;;;;7.60;3.37;;;;;;;6.76;45.94;98268.41;6847748;28;20284;-83
2022/01/05 17:25:52;;;;;;;4.57;2.87;;;;;;;6.07;46.03;98130.03;6839744;29;20685;-84
2022/01/05 17:29:13;;;;;;;9.80;4.17;;;;;;;6.17;45.71;98168.00;6835021;29;20211;-84
2022/01/05 17:32:36;;;;;;;5.43;3.73;;;;;;;7.12;45.26;98324.53;6837625;28;20220;-83
2022/01/05 17:35:59;;;;;;;4.80;3.27;;;;;;;6.97;45.06;98256.81;6839499;28;20234;-84
2022/01/05 17:39:20;;;;;;;5.00;3.20;;;;;;;6.65;45.32;98254.69;6839289;28;20243;-80
2022/01/05 17:42:43;;;;;;;5.33;2.93;;;;;;;7.66;45.08;98396.09;6843733;28;20214;-80
2022/01/05 17:46:05;;;;;;;6.10;3.03;;;;;;;7.80;44.60;98380.91;6839645;28;20403;-75
2022/01/05 17:49:26;;;;;;;4.53;3.40;;;;;;;7.88;45.23;98396.81;6830063;28;20234;-74
2022/01/05 17:52:49;;;;;;;4.83;3.40;;;;;;;8.12;44.10;98375.69;6840564;29;20211;-74
2022/01/05 17:56:11;;;;;;;6.13;3.90;;;;;;;7.77;44.69;98398.22;6832887;28;20210;-74
2022/01/05 17:59:33;;;;;;;11.00;4.13;;;;;;;7.97;44.62;98383.06;6829997;28;20229;-74
2022/01/05 18:02:55;;;;;;;4.37;3.20;;;;;;;7.78;44.86;98407.09;6839571;28;20571;-73
2022/01/05 18:06:17;;;;;;;5.90;2.63;;;;;;;7.84;44.15;98404.44;6838081;28;20680;-74
2022/01/05 18:09:40;;;;;;;6.23;3.23;;;;;;;8.05;44.61;98411.59;6831572;29;20211;-74
2022/01/05 18:13:01;;;;;;;7.40;3.00;;;;;;;8.29;43.52;98405.72;6824316;29;20232;-74
2022/01/05 18:16:27;;;;;;;4.00;2.83;;;;;;;7.96;43.80;98426.22;6838779;29;20234;-74
2022/01/05 18:19:49;;;;;;;6.57;2.83;;;;;;;8.22;43.51;98413.78;6835111;29;20595;-73
2022/01/05 18:23:10;;;;;;;3.80;2.43;;;;;;;7.37;44.04;98355.25;6825931;29;20215;-74
2022/01/05 18:26:34;;;;;;;7.00;2.90;;;;;;;8.26;43.74;98422.25;6833666;29;20225;-73
2022/01/05 18:29:55;;;;;;;4.83;2.63;;;;;;;8.53;43.25;98413.25;6835302;28;20239;-73
2022/01/05 18:33:17;;;;;;;11.50;3.47;;;;;;;8.43;43.45;98419.03;6792624;29;20214;-73
2022/01/05 18:36:39;;;;;;;6.07;3.30;;;;;;;7.97;43.74;98376.88;6841256;29;20212;-74
2022/01/05 18:40:01;;;;;;;4.07;2.97;;;;;;;7.89;44.35;98426.16;6830968;29;20240;-73
2022/01/05 18:43:24;;;;;;;4.60;3.17;;;;;;;8.40;43.82;98419.44;6825903;29;20735;-73
2022/01/05 18:46:47;;;;;;;6.57;2.77;;;;;;;7.66;44.32;98414.84;6828549;29;20220;-74
2022/01/05 18:50:09;;;;;;;4.37;3.20;;;;;;;8.40;43.21;98429.34;6844593;28;20210;-74
2022/01/05 18:53:30;;;;;;;5.13;3.30;;;;;;;8.37;43.75;98429.75;6814748;29;20207;-74
2022/01/05 18:56:52;;;;;;;8.73;3.93;;;;;;;8.02;44.04;98417.38;6842854;29;20217;-74
2022/01/05 19:00:16;;;;;;;5.47;2.87;;;;;;;8.17;44.12;98418.03;6833571;28;20226;-74
2022/01/05 19:03:38;;;;;;;7.83;3.27;;;;;;;8.15;43.78;98429.00;6820339;29;20220;-74
2022/01/05 19:07:00;;;;;;;8.37;4.03;;;;;;;7.91;44.12;98421.41;6836048;29;20208;-75
2022/01/05 19:10:22;;;;;;;6.73;3.50;;;;;;;7.89;44.49;98419.97;6828218;29;20234;-73
2022/01/05 19:13:43;;;;;;;6.10;3.40;;;;;;;7.71;44.90;98425.84;6821474;29;20205;-74
2022/01/05 19:17:06;;;;;;;8.83;3.20;;;;;;;8.31;43.79;98436.75;6833553;29;20225;-74
2022/01/05 19:20:28;;;;;;;5.87;3.33;;;;;;;8.35;44.35;98438.00;6827724;29;20247;-74
2022/01/05 19:23:51;;;;;;;9.37;3.23;;;;;;;8.08;44.45;98440.72;6836573;28;20250;-74
2022/01/05 19:27:14;;;;;;;5.47;2.90;;;;;;;8.13;44.87;98443.66;6827169;29;20217;-74
2022/01/05 19:30:37;;;;;;;4.20;3.23;;;;;;;8.20;44.14;98410.44;6810971;29;20214;-73
2022/01/05 19:34:00;;;;;;;6.10;3.40;;;;;;;8.23;44.18;98447.66;6825631;29;20296;-74
2022/01/05 19:37:22;;;;;;;8.00;3.40;;;;;;;8.47;43.83;98452.53;6831063;28;20217;-73
2022/01/05 19:40:44;;;;;;;4.50;2.80;;;;;;;7.79;45.05;98444.44;6836058;28;20229;-73
2022/01/05 19:44:08;;;;;;;5.57;3.50;;;;;;;7.83;45.50;98436.88;6827761;29;20222;-73
2022/01/05 19:47:29;;;;;;;6.00;3.60;;;;;;;7.84;45.12;98431.28;6838870;29;20593;-75
2022/01/05 19:51:01;;;;;;;6.27;3.83;;;;;;;7.79;45.74;98427.53;6832019;28;20216;-74
2022/01/05 19:54:24;;;;;;;7.87;4.33;;;;;;;7.86;45.96;98439.16;6839354;29;20257;-74
2022/01/05 19:57:46;;;;;;;6.03;3.20;;;;;;;8.05;46.04;98441.97;6821299;29;20743;-74
2022/01/05 20:01:08;;;;;;;5.80;3.40;;;;;;;8.19;45.16;98443.66;6827548;28;20553;-73
2022/01/05 20:04:30;;;;;;;7.33;3.70;;;;;;;7.83;45.47;98391.25;6809322;29;20236;-73
2022/01/05 20:07:53;;;;;;;6.30;3.40;;;;;;;8.05;45.95;98441.97;6831845;29;20222;-74
2022/01/05 20:11:16;;;;;;;12.47;4.07;;;;;;;7.89;45.37;98403.88;6826832;29;20693;-76
2022/01/05 20:14:39;;;;;;;8.77;3.80;;;;;;;8.02;45.01;98436.97;6818368;29;20202;-74
2022/01/05 20:18:01;;;;;;;6.20;4.20;;;;;;;7.71;46.48;98451.84;6832515;29;20238;-73
2022/01/05 20:21:22;;;;;;;10.20;4.53;;;;;;;8.00;46.33;98448.94;6826360;29;20211;-74
2022/01/05 20:24:45;;;;;;;8.03;4.83;;;;;;;7.79;46.53;98446.31;6828405;29;20588;-73
2022/01/05 20:28:07;;;;;;;7.10;3.23;;;;;;;7.70;46.50;98447.50;6831385;29;20229;-73
2022/01/05 20:31:29;;;;;;;9.57;5.67;;;;;;;7.79;46.33;98443.66;6832452;28;20211;-73
2022/01/05 20:34:50;;;;;;;7.70;4.60;;;;;;;8.16;46.04;98454.81;6820747;29;20212;-73
2022/01/05 20:38:12;;;;;;;7.33;5.37;;;;;;;7.94;46.60;98447.88;6818200;29;20235;-74
2022/01/05 20:41:35;;;;;;;8.70;5.53;;;;;;;8.35;45.63;98443.38;6841995;29;20220;-74
2022/01/05 20:45:00;;;;;;;13.40;6.10;;;;;;;7.98;46.81;98438.41;6832532;28;20217;-74
2022/01/05 20:48:21;;;;;;;7.13;3.80;;;;;;;8.19;46.57;98451.72;6828060;29;20212;-73
2022/01/05 20:51:43;;;;;;;7.33;4.63;;;;;;;8.10;46.68;98452.09;6830660;28;20226;-73
2022/01/05 20:55:07;;;;;;;8.90;4.10;;;;;;;7.89;46.69;98462.91;6825952;28;20579;-74
2022/01/05 20:58:30;;;;;;;10.90;5.30;;;;;;;7.99;46.74;98460.69;6832231;29;20220;-74
2022/01/05 21:01:52;;;;;;;14.40;4.97;;;;;;;8.04;46.76;98455.56;6829891;29;20238;-73
2022/01/05 21:05:15;;;;;;;5.93;3.53;;;;;;;8.23;46.01;98452.19;6823756;29;20214;-73